sensor_id;sensor_type;location;lat;lon;timestamp;P1;durP1;ratioP1;P2;durP2;ratioP2
59766;SDS011;46248;58.364;25.582;2023-10-13T00:01:07;1.65;;;0.68;;
59766;SDS011;46248;58.364;25.582;2023-10-13T00:04:32;0.85;;;0.40;;
59766;SDS011;46248;58.364;25.582;2023-10-13T00:07:56;2.40;;;0.25;;
59766;SDS011;46248;58.364;25.582;2023-10-13T00:11:22;0.98;;;0.85;;
59766;SDS011;46248;58.364;25.582;2023-10-13T00:14:47;0.82;;;0.50;;
59766;SDS011;46248;58.364;25.582;2023-10-13T00:18:11;2.63;;;0.80;;
59766;SDS011;46248;58.364;25.582;2023-10-13T00:21:34;0.82;;;0.60;;
59766;SDS011;46248;58.364;25.582;2023-10-13T00:24:56;2.50;;;0.60;;
59766;SDS011;46248;58.364;25.582;2023-10-13T00:28:21;2.28;;;0.47;;
59766;SDS011;46248;58.364;25.582;2023-10-13T00:31:44;0.70;;;0.70;;
59766;SDS011;46248;58.364;25.582;2023-10-13T00:35:09;2.30;;;1.38;;
59766;SDS011;46248;58.364;25.582;2023-10-13T00:38:33;2.15;;;0.70;;
59766;SDS011;46248;58.364;25.582;2023-10-13T00:41:55;1.08;;;0.50;;
59766;SDS011;46248;58.364;25.582;2023-10-13T00:45:22;1.17;;;0.55;;
59766;SDS011;46248;58.364;25.582;2023-10-13T00:52:12;1.30;;;0.38;;
59766;SDS011;46248;58.364;25.582;2023-10-13T00:55:36;1.63;;;0.50;;
59766;SDS011;46248;58.364;25.582;2023-10-13T00:59:02;1.02;;;0.50;;
59766;SDS011;46248;58.364;25.582;2023-10-13T01:02:26;0.68;;;0.68;;
59766;SDS011;46248;58.364;25.582;2023-10-13T01:05:59;1.55;;;0.60;;
59766;SDS011;46248;58.364;25.582;2023-10-13T01:09:19;0.30;;;0.30;;
59766;SDS011;46248;58.364;25.582;2023-10-13T01:12:45;0.60;;;0.43;;
59766;SDS011;46248;58.364;25.582;2023-10-13T01:16:06;2.40;;;0.45;;
59766;SDS011;46248;58.364;25.582;2023-10-13T01:19:29;0.52;;;0.52;;
59766;SDS011;46248;58.364;25.582;2023-10-13T01:22:51;1.15;;;0.70;;
59766;SDS011;46248;58.364;25.582;2023-10-13T01:26:17;2.60;;;0.85;;
59766;SDS011;46248;58.364;25.582;2023-10-13T01:29:44;0.88;;;0.88;;
59766;SDS011;46248;58.364;25.582;2023-10-13T01:33:09;0.50;;;0.50;;
59766;SDS011;46248;58.364;25.582;2023-10-13T01:36:31;0.75;;;0.60;;
59766;SDS011;46248;58.364;25.582;2023-10-13T01:39:56;2.53;;;1.00;;
59766;SDS011;46248;58.364;25.582;2023-10-13T01:43:19;2.15;;;0.50;;
59766;SDS011;46248;58.364;25.582;2023-10-13T01:46:40;2.10;;;0.40;;
59766;SDS011;46248;58.364;25.582;2023-10-13T01:50:02;2.25;;;0.32;;
59766;SDS011;46248;58.364;25.582;2023-10-13T01:53:35;1.95;;;0.50;;
59766;SDS011;46248;58.364;25.582;2023-10-13T01:56:57;0.32;;;0.20;;
59766;SDS011;46248;58.364;25.582;2023-10-13T02:00:21;2.92;;;0.30;;
59766;SDS011;46248;58.364;25.582;2023-10-13T02:03:42;0.65;;;0.20;;
59766;SDS011;46248;58.364;25.582;2023-10-13T02:07:08;2.42;;;0.43;;
59766;SDS011;46248;58.364;25.582;2023-10-13T02:10:28;1.98;;;0.32;;
59766;SDS011;46248;58.364;25.582;2023-10-13T02:13:51;3.53;;;0.40;;
59766;SDS011;46248;58.364;25.582;2023-10-13T02:17:18;3.88;;;0.52;;
59766;SDS011;46248;58.364;25.582;2023-10-13T02:20:43;1.60;;;0.30;;
59766;SDS011;46248;58.364;25.582;2023-10-13T02:24:06;0.85;;;0.43;;
59766;SDS011;46248;58.364;25.582;2023-10-13T02:27:33;2.22;;;0.55;;
59766;SDS011;46248;58.364;25.582;2023-10-13T02:31:01;1.95;;;0.52;;
59766;SDS011;46248;58.364;25.582;2023-10-13T02:34:26;1.02;;;0.50;;
59766;SDS011;46248;58.364;25.582;2023-10-13T02:37:48;2.45;;;0.70;;
59766;SDS011;46248;58.364;25.582;2023-10-13T02:41:16;1.95;;;1.05;;
59766;SDS011;46248;58.364;25.582;2023-10-13T02:44:45;2.58;;;1.35;;
59766;SDS011;46248;58.364;25.582;2023-10-13T02:48:06;1.02;;;0.90;;
59766;SDS011;46248;58.364;25.582;2023-10-13T02:51:34;1.17;;;1.08;;
59766;SDS011;46248;58.364;25.582;2023-10-13T02:54:56;1.90;;;1.33;;
59766;SDS011;46248;58.364;25.582;2023-10-13T02:58:18;4.65;;;1.30;;
59766;SDS011;46248;58.364;25.582;2023-10-13T03:01:41;0.95;;;0.57;;
59766;SDS011;46248;58.364;25.582;2023-10-13T03:05:03;2.10;;;1.90;;
59766;SDS011;46248;58.364;25.582;2023-10-13T03:08:30;3.33;;;1.30;;
59766;SDS011;46248;58.364;25.582;2023-10-13T03:11:54;1.67;;;1.23;;
59766;SDS011;46248;58.364;25.582;2023-10-13T03:15:16;12.25;;;4.10;;
59766;SDS011;46248;58.364;25.582;2023-10-13T03:18:40;2.47;;;2.28;;
59766;SDS011;46248;58.364;25.582;2023-10-13T03:22:11;2.85;;;0.70;;
59766;SDS011;46248;58.364;25.582;2023-10-13T03:25:37;2.13;;;0.70;;
59766;SDS011;46248;58.364;25.582;2023-10-13T03:29:03;4.63;;;0.85;;
59766;SDS011;46248;58.364;25.582;2023-10-13T03:32:33;0.88;;;0.70;;
59766;SDS011;46248;58.364;25.582;2023-10-13T03:35:55;1.90;;;0.65;;
59766;SDS011;46248;58.364;25.582;2023-10-13T03:39:25;1.77;;;0.50;;
59766;SDS011;46248;58.364;25.582;2023-10-13T03:42:52;2.60;;;0.52;;
59766;SDS011;46248;58.364;25.582;2023-10-13T03:46:24;0.95;;;0.50;;
59766;SDS011;46248;58.364;25.582;2023-10-13T03:49:46;1.77;;;0.60;;
59766;SDS011;46248;58.364;25.582;2023-10-13T03:53:11;2.63;;;0.70;;
59766;SDS011;46248;58.364;25.582;2023-10-13T03:56:33;0.90;;;0.70;;
59766;SDS011;46248;58.364;25.582;2023-10-13T04:00:02;3.60;;;1.05;;
59766;SDS011;46248;58.364;25.582;2023-10-13T04:03:28;5.63;;;2.05;;
59766;SDS011;46248;58.364;25.582;2023-10-13T04:06:55;6.07;;;1.98;;
59766;SDS011;46248;58.364;25.582;2023-10-13T04:10:33;5.10;;;1.48;;
59766;SDS011;46248;58.364;25.582;2023-10-13T04:14:21;4.15;;;1.70;;
59766;SDS011;46248;58.364;25.582;2023-10-13T04:18:06;5.70;;;1.38;;
59766;SDS011;46248;58.364;25.582;2023-10-13T04:21:54;2.05;;;0.80;;
59766;SDS011;46248;58.364;25.582;2023-10-13T04:25:20;2.60;;;0.80;;
59766;SDS011;46248;58.364;25.582;2023-10-13T04:28:56;3.00;;;1.30;;
59766;SDS011;46248;58.364;25.582;2023-10-13T04:32:29;2.28;;;1.10;;
59766;SDS011;46248;58.364;25.582;2023-10-13T04:35:54;1.67;;;0.73;;
59766;SDS011;46248;58.364;25.582;2023-10-13T04:39:19;1.67;;;0.85;;
59766;SDS011;46248;58.364;25.582;2023-10-13T04:42:55;1.10;;;1.05;;
59766;SDS011;46248;58.364;25.582;2023-10-13T04:46:18;6.13;;;2.38;;
59766;SDS011;46248;58.364;25.582;2023-10-13T04:49:56;6.10;;;2.80;;
59766;SDS011;46248;58.364;25.582;2023-10-13T04:53:22;3.17;;;2.28;;
59766;SDS011;46248;58.364;25.582;2023-10-13T04:56:53;7.72;;;4.03;;
59766;SDS011;46248;58.364;25.582;2023-10-13T05:00:40;4.40;;;2.88;;
59766;SDS011;46248;58.364;25.582;2023-10-13T05:04:43;1.88;;;1.50;;
59766;SDS011;46248;58.364;25.582;2023-10-13T05:12:04;1.95;;;0.80;;
59766;SDS011;46248;58.364;25.582;2023-10-13T05:15:43;2.53;;;0.93;;
59766;SDS011;46248;58.364;25.582;2023-10-13T05:19:22;2.30;;;1.35;;
59766;SDS011;46248;58.364;25.582;2023-10-13T05:23:01;3.38;;;2.30;;
59766;SDS011;46248;58.364;25.582;2023-10-13T05:26:41;3.95;;;1.98;;
59766;SDS011;46248;58.364;25.582;2023-10-13T05:30:20;2.22;;;1.60;;
59766;SDS011;46248;58.364;25.582;2023-10-13T05:33:59;2.55;;;1.40;;
59766;SDS011;46248;58.364;25.582;2023-10-13T05:37:39;2.88;;;2.25;;
59766;SDS011;46248;58.364;25.582;2023-10-13T05:41:19;2.05;;;1.38;;
59766;SDS011;46248;58.364;25.582;2023-10-13T05:45:00;1.60;;;1.30;;
59766;SDS011;46248;58.364;25.582;2023-10-13T05:48:36;3.13;;;1.85;;
59766;SDS011;46248;58.364;25.582;2023-10-13T05:52:25;2.75;;;1.30;;
59766;SDS011;46248;58.364;25.582;2023-10-13T05:56:04;2.53;;;1.27;;
59766;SDS011;46248;58.364;25.582;2023-10-13T05:59:59;4.03;;;1.15;;
59766;SDS011;46248;58.364;25.582;2023-10-13T06:03:38;7.13;;;1.67;;
59766;SDS011;46248;58.364;25.582;2023-10-13T06:07:18;2.95;;;1.20;;
59766;SDS011;46248;58.364;25.582;2023-10-13T06:11:01;4.13;;;1.13;;
59766;SDS011;46248;58.364;25.582;2023-10-13T06:14:40;1.88;;;1.20;;
59766;SDS011;46248;58.364;25.582;2023-10-13T06:18:25;3.50;;;1.30;;
59766;SDS011;46248;58.364;25.582;2023-10-13T06:22:03;2.20;;;1.30;;
59766;SDS011;46248;58.364;25.582;2023-10-13T06:25:42;2.30;;;1.77;;
59766;SDS011;46248;58.364;25.582;2023-10-13T06:29:21;3.85;;;1.60;;
59766;SDS011;46248;58.364;25.582;2023-10-13T06:32:43;5.53;;;1.45;;
59766;SDS011;46248;58.364;25.582;2023-10-13T06:36:07;1.92;;;0.80;;
59766;SDS011;46248;58.364;25.582;2023-10-13T06:39:29;3.03;;;1.13;;
59766;SDS011;46248;58.364;25.582;2023-10-13T06:42:56;1.35;;;0.50;;
59766;SDS011;46248;58.364;25.582;2023-10-13T06:46:32;2.60;;;0.80;;
59766;SDS011;46248;58.364;25.582;2023-10-13T06:49:55;0.73;;;0.60;;
59766;SDS011;46248;58.364;25.582;2023-10-13T06:53:18;1.08;;;0.50;;
59766;SDS011;46248;58.364;25.582;2023-10-13T06:56:40;1.38;;;0.40;;
59766;SDS011;46248;58.364;25.582;2023-10-13T07:00:02;3.70;;;1.80;;
59766;SDS011;46248;58.364;25.582;2023-10-13T07:03:28;4.35;;;1.33;;
59766;SDS011;46248;58.364;25.582;2023-10-13T07:06:50;3.47;;;1.63;;
59766;SDS011;46248;58.364;25.582;2023-10-13T07:10:16;3.03;;;1.23;;
59766;SDS011;46248;58.364;25.582;2023-10-13T07:13:38;0.38;;;0.28;;
59766;SDS011;46248;58.364;25.582;2023-10-13T07:17:04;1.70;;;0.43;;
59766;SDS011;46248;58.364;25.582;2023-10-13T07:20:28;1.70;;;1.08;;
59766;SDS011;46248;58.364;25.582;2023-10-13T07:23:54;0.93;;;0.40;;
59766;SDS011;46248;58.364;25.582;2023-10-13T07:27:30;1.95;;;0.60;;
59766;SDS011;46248;58.364;25.582;2023-10-13T07:30:55;3.95;;;0.70;;
59766;SDS011;46248;58.364;25.582;2023-10-13T07:34:32;1.35;;;0.60;;
59766;SDS011;46248;58.364;25.582;2023-10-13T07:37:55;10.90;;;3.97;;
59766;SDS011;46248;58.364;25.582;2023-10-13T07:41:20;16.65;;;6.18;;
59766;SDS011;46248;58.364;25.582;2023-10-13T07:44:52;16.52;;;6.22;;
59766;SDS011;46248;58.364;25.582;2023-10-13T07:48:16;4.45;;;1.90;;
59766;SDS011;46248;58.364;25.582;2023-10-13T07:51:40;4.13;;;1.73;;
59766;SDS011;46248;58.364;25.582;2023-10-13T07:55:05;1.98;;;1.48;;
59766;SDS011;46248;58.364;25.582;2023-10-13T07:58:35;1.55;;;0.75;;
59766;SDS011;46248;58.364;25.582;2023-10-13T08:02:09;2.00;;;0.80;;
59766;SDS011;46248;58.364;25.582;2023-10-13T08:05:35;2.53;;;0.52;;
59766;SDS011;46248;58.364;25.582;2023-10-13T08:09:03;1.45;;;0.68;;
59766;SDS011;46248;58.364;25.582;2023-10-13T08:12:49;1.10;;;0.55;;
59766;SDS011;46248;58.364;25.582;2023-10-13T08:16:12;1.65;;;1.15;;
59766;SDS011;46248;58.364;25.582;2023-10-13T08:19:42;2.80;;;0.60;;
59766;SDS011;46248;58.364;25.582;2023-10-13T08:23:06;1.77;;;0.52;;
59766;SDS011;46248;58.364;25.582;2023-10-13T08:26:34;0.95;;;0.50;;
59766;SDS011;46248;58.364;25.582;2023-10-13T08:30:13;3.17;;;1.42;;
59766;SDS011;46248;58.364;25.582;2023-10-13T08:33:51;1.37;;;0.97;;
59766;SDS011;46248;58.364;25.582;2023-10-13T08:37:27;2.90;;;1.02;;
59766;SDS011;46248;58.364;25.582;2023-10-13T08:40:53;2.22;;;1.02;;
59766;SDS011;46248;58.364;25.582;2023-10-13T08:44:41;5.43;;;1.53;;
59766;SDS011;46248;58.364;25.582;2023-10-13T08:48:08;2.00;;;1.50;;
59766;SDS011;46248;58.364;25.582;2023-10-13T08:51:34;4.40;;;1.80;;
59766;SDS011;46248;58.364;25.582;2023-10-13T08:55:10;5.75;;;1.67;;
59766;SDS011;46248;58.364;25.582;2023-10-13T08:58:50;2.15;;;1.00;;
59766;SDS011;46248;58.364;25.582;2023-10-13T09:02:26;4.53;;;1.20;;
59766;SDS011;46248;58.364;25.582;2023-10-13T09:06:01;4.57;;;1.80;;
59766;SDS011;46248;58.364;25.582;2023-10-13T09:09:27;1.60;;;1.00;;
59766;SDS011;46248;58.364;25.582;2023-10-13T09:12:56;4.20;;;1.27;;
59766;SDS011;46248;58.364;25.582;2023-10-13T09:16:23;3.97;;;1.40;;
59766;SDS011;46248;58.364;25.582;2023-10-13T09:20:11;4.70;;;1.10;;
59766;SDS011;46248;58.364;25.582;2023-10-13T09:23:45;3.88;;;0.90;;
59766;SDS011;46248;58.364;25.582;2023-10-13T09:27:09;3.95;;;0.77;;
59766;SDS011;46248;58.364;25.582;2023-10-13T09:30:34;2.75;;;0.70;;
59766;SDS011;46248;58.364;25.582;2023-10-13T09:34:03;3.30;;;0.90;;
59766;SDS011;46248;58.364;25.582;2023-10-13T09:37:26;2.22;;;0.80;;
59766;SDS011;46248;58.364;25.582;2023-10-13T09:40:48;4.90;;;0.90;;
59766;SDS011;46248;58.364;25.582;2023-10-13T09:44:11;3.70;;;0.90;;
59766;SDS011;46248;58.364;25.582;2023-10-13T09:47:34;5.25;;;0.77;;
59766;SDS011;46248;58.364;25.582;2023-10-13T09:51:01;6.20;;;0.85;;
59766;SDS011;46248;58.364;25.582;2023-10-13T09:54:29;5.93;;;1.80;;
59766;SDS011;46248;58.364;25.582;2023-10-13T09:58:06;6.35;;;2.20;;
59766;SDS011;46248;58.364;25.582;2023-10-13T10:01:34;2.35;;;0.93;;
59766;SDS011;46248;58.364;25.582;2023-10-13T10:05:12;5.90;;;1.50;;
59766;SDS011;46248;58.364;25.582;2023-10-13T10:08:41;8.40;;;1.10;;
59766;SDS011;46248;58.364;25.582;2023-10-13T10:12:16;6.47;;;1.20;;
59766;SDS011;46248;58.364;25.582;2023-10-13T10:15:49;3.80;;;1.10;;
59766;SDS011;46248;58.364;25.582;2023-10-13T10:19:17;2.97;;;0.75;;
59766;SDS011;46248;58.364;25.582;2023-10-13T10:22:41;2.50;;;1.42;;
59766;SDS011;46248;58.364;25.582;2023-10-13T10:26:09;3.47;;;1.13;;
59766;SDS011;46248;58.364;25.582;2023-10-13T10:29:31;1.83;;;0.80;;
59766;SDS011;46248;58.364;25.582;2023-10-13T10:32:54;7.40;;;1.00;;
59766;SDS011;46248;58.364;25.582;2023-10-13T10:36:27;3.30;;;1.10;;
59766;SDS011;46248;58.364;25.582;2023-10-13T10:39:51;2.97;;;1.00;;
59766;SDS011;46248;58.364;25.582;2023-10-13T10:43:17;4.68;;;0.85;;
59766;SDS011;46248;58.364;25.582;2023-10-13T10:46:52;4.72;;;1.02;;
59766;SDS011;46248;58.364;25.582;2023-10-13T10:50:24;4.65;;;0.95;;
59766;SDS011;46248;58.364;25.582;2023-10-13T10:53:55;3.33;;;0.70;;
59766;SDS011;46248;58.364;25.582;2023-10-13T10:57:19;1.25;;;0.70;;
59766;SDS011;46248;58.364;25.582;2023-10-13T11:01:03;4.30;;;1.10;;
59766;SDS011;46248;58.364;25.582;2023-10-13T11:04:30;4.88;;;1.08;;
59766;SDS011;46248;58.364;25.582;2023-10-13T11:07:55;3.67;;;1.05;;
59766;SDS011;46248;58.364;25.582;2023-10-13T11:15:04;4.68;;;0.82;;
59766;SDS011;46248;58.364;25.582;2023-10-13T11:18:34;5.70;;;1.67;;
59766;SDS011;46248;58.364;25.582;2023-10-13T11:22:09;2.70;;;0.95;;
59766;SDS011;46248;58.364;25.582;2023-10-13T11:25:34;4.15;;;1.40;;
59766;SDS011;46248;58.364;25.582;2023-10-13T11:28:57;5.43;;;1.08;;
59766;SDS011;46248;58.364;25.582;2023-10-13T11:32:21;2.63;;;0.75;;
59766;SDS011;46248;58.364;25.582;2023-10-13T11:35:42;3.08;;;0.73;;
59766;SDS011;46248;58.364;25.582;2023-10-13T11:39:16;5.28;;;0.90;;
59766;SDS011;46248;58.364;25.582;2023-10-13T11:42:43;4.85;;;1.25;;
59766;SDS011;46248;58.364;25.582;2023-10-13T11:46:07;5.65;;;0.95;;
59766;SDS011;46248;58.364;25.582;2023-10-13T11:49:39;3.47;;;0.75;;
59766;SDS011;46248;58.364;25.582;2023-10-13T11:53:01;1.38;;;0.60;;
59766;SDS011;46248;58.364;25.582;2023-10-13T11:56:28;4.13;;;0.70;;
59766;SDS011;46248;58.364;25.582;2023-10-13T11:59:49;7.10;;;1.30;;
59766;SDS011;46248;58.364;25.582;2023-10-13T12:03:16;4.38;;;0.73;;
59766;SDS011;46248;58.364;25.582;2023-10-13T12:10:34;3.20;;;1.17;;
59766;SDS011;46248;58.364;25.582;2023-10-13T12:14:09;1.85;;;0.75;;
59766;SDS011;46248;58.364;25.582;2023-10-13T12:17:40;4.07;;;0.75;;
59766;SDS011;46248;58.364;25.582;2023-10-13T12:21:07;4.28;;;1.27;;
59766;SDS011;46248;58.364;25.582;2023-10-13T12:24:34;3.55;;;1.05;;
59766;SDS011;46248;58.364;25.582;2023-10-13T12:28:02;1.95;;;0.73;;
59766;SDS011;46248;58.364;25.582;2023-10-13T12:31:39;5.80;;;1.20;;
59766;SDS011;46248;58.364;25.582;2023-10-13T12:35:11;6.18;;;1.05;;
59766;SDS011;46248;58.364;25.582;2023-10-13T12:38:48;4.43;;;1.02;;
59766;SDS011;46248;58.364;25.582;2023-10-13T12:42:28;3.28;;;0.73;;
59766;SDS011;46248;58.364;25.582;2023-10-13T12:46:07;7.72;;;2.22;;
59766;SDS011;46248;58.364;25.582;2023-10-13T12:49:46;7.32;;;1.80;;
59766;SDS011;46248;58.364;25.582;2023-10-13T12:53:18;5.47;;;1.88;;
59766;SDS011;46248;58.364;25.582;2023-10-13T12:56:40;6.00;;;1.77;;
59766;SDS011;46248;58.364;25.582;2023-10-13T13:00:05;4.60;;;1.67;;
59766;SDS011;46248;58.364;25.582;2023-10-13T13:03:37;2.80;;;1.25;;
59766;SDS011;46248;58.364;25.582;2023-10-13T13:07:04;6.97;;;1.48;;
59766;SDS011;46248;58.364;25.582;2023-10-13T13:10:33;4.97;;;1.50;;
59766;SDS011;46248;58.364;25.582;2023-10-13T13:13:58;2.30;;;0.95;;
59766;SDS011;46248;58.364;25.582;2023-10-13T13:17:20;7.82;;;1.67;;
59766;SDS011;46248;58.364;25.582;2023-10-13T13:20:43;3.92;;;1.20;;
59766;SDS011;46248;58.364;25.582;2023-10-13T13:24:14;3.90;;;1.48;;
59766;SDS011;46248;58.364;25.582;2023-10-13T13:27:36;5.45;;;2.22;;
59766;SDS011;46248;58.364;25.582;2023-10-13T13:31:02;11.02;;;3.63;;
59766;SDS011;46248;58.364;25.582;2023-10-13T13:34:29;3.75;;;1.88;;
59766;SDS011;46248;58.364;25.582;2023-10-13T13:37:51;3.88;;;2.15;;
59766;SDS011;46248;58.364;25.582;2023-10-13T13:41:14;7.10;;;2.58;;
59766;SDS011;46248;58.364;25.582;2023-10-13T13:44:36;6.28;;;2.38;;
59766;SDS011;46248;58.364;25.582;2023-10-13T13:47:58;3.05;;;1.13;;
59766;SDS011;46248;58.364;25.582;2023-10-13T13:51:21;7.72;;;2.28;;
59766;SDS011;46248;58.364;25.582;2023-10-13T13:54:48;10.02;;;2.13;;
59766;SDS011;46248;58.364;25.582;2023-10-13T13:58:10;4.18;;;1.70;;
59766;SDS011;46248;58.364;25.582;2023-10-13T14:01:33;5.90;;;1.75;;
59766;SDS011;46248;58.364;25.582;2023-10-13T14:04:57;5.20;;;1.40;;
59766;SDS011;46248;58.364;25.582;2023-10-13T14:08:23;8.43;;;2.03;;
59766;SDS011;46248;58.364;25.582;2023-10-13T14:11:45;6.68;;;1.58;;
59766;SDS011;46248;58.364;25.582;2023-10-13T14:15:30;4.55;;;2.15;;
59766;SDS011;46248;58.364;25.582;2023-10-13T14:18:59;4.28;;;1.40;;
59766;SDS011;46248;58.364;25.582;2023-10-13T14:22:22;9.35;;;4.28;;
59766;SDS011;46248;58.364;25.582;2023-10-13T14:25:46;7.80;;;3.22;;
59766;SDS011;46248;58.364;25.582;2023-10-13T14:29:09;6.80;;;3.47;;
59766;SDS011;46248;58.364;25.582;2023-10-13T14:32:34;15.38;;;6.95;;
59766;SDS011;46248;58.364;25.582;2023-10-13T14:36:00;23.05;;;9.40;;
59766;SDS011;46248;58.364;25.582;2023-10-13T14:39:24;43.08;;;16.70;;
59766;SDS011;46248;58.364;25.582;2023-10-13T14:42:51;50.42;;;20.95;;
59766;SDS011;46248;58.364;25.582;2023-10-13T14:46:13;57.35;;;25.30;;
59766;SDS011;46248;58.364;25.582;2023-10-13T14:49:36;45.83;;;25.15;;
59766;SDS011;46248;58.364;25.582;2023-10-13T14:52:58;25.63;;;18.13;;
59766;SDS011;46248;58.364;25.582;2023-10-13T14:56:20;17.75;;;13.32;;
59766;SDS011;46248;58.364;25.582;2023-10-13T14:59:46;9.38;;;5.03;;
59766;SDS011;46248;58.364;25.582;2023-10-13T15:03:08;10.48;;;3.67;;
59766;SDS011;46248;58.364;25.582;2023-10-13T15:06:30;7.45;;;2.80;;
59766;SDS011;46248;58.364;25.582;2023-10-13T15:09:52;7.00;;;3.72;;
59766;SDS011;46248;58.364;25.582;2023-10-13T15:13:16;23.85;;;16.02;;
59766;SDS011;46248;58.364;25.582;2023-10-13T15:16:40;8.70;;;5.85;;
59766;SDS011;46248;58.364;25.582;2023-10-13T15:20:04;9.50;;;4.00;;
59766;SDS011;46248;58.364;25.582;2023-10-13T15:23:28;8.77;;;4.43;;
59766;SDS011;46248;58.364;25.582;2023-10-13T15:26:51;6.70;;;3.28;;
59766;SDS011;46248;58.364;25.582;2023-10-13T15:30:21;8.57;;;4.57;;
59766;SDS011;46248;58.364;25.582;2023-10-13T15:33:49;8.07;;;4.20;;
59766;SDS011;46248;58.364;25.582;2023-10-13T15:37:14;8.38;;;5.40;;
59766;SDS011;46248;58.364;25.582;2023-10-13T15:40:39;5.50;;;3.30;;
59766;SDS011;46248;58.364;25.582;2023-10-13T15:44:03;5.90;;;2.70;;
59766;SDS011;46248;58.364;25.582;2023-10-13T15:47:29;7.00;;;2.58;;
59766;SDS011;46248;58.364;25.582;2023-10-13T15:50:58;6.13;;;2.40;;
59766;SDS011;46248;58.364;25.582;2023-10-13T15:54:24;3.97;;;2.17;;
59766;SDS011;46248;58.364;25.582;2023-10-13T15:57:45;6.47;;;2.30;;
59766;SDS011;46248;58.364;25.582;2023-10-13T16:01:13;10.82;;;4.65;;
59766;SDS011;46248;58.364;25.582;2023-10-13T16:04:36;8.48;;;4.00;;
59766;SDS011;46248;58.364;25.582;2023-10-13T16:07:59;9.82;;;3.30;;
59766;SDS011;46248;58.364;25.582;2023-10-13T16:11:23;6.97;;;3.53;;
59766;SDS011;46248;58.364;25.582;2023-10-13T16:14:44;9.68;;;5.30;;
59766;SDS011;46248;58.364;25.582;2023-10-13T16:18:06;10.85;;;4.55;;
59766;SDS011;46248;58.364;25.582;2023-10-13T16:21:28;9.90;;;4.80;;
59766;SDS011;46248;58.364;25.582;2023-10-13T16:24:52;13.85;;;6.72;;
59766;SDS011;46248;58.364;25.582;2023-10-13T16:28:27;13.60;;;6.55;;
59766;SDS011;46248;58.364;25.582;2023-10-13T16:31:54;10.77;;;5.63;;
59766;SDS011;46248;58.364;25.582;2023-10-13T16:35:16;16.27;;;4.90;;
59766;SDS011;46248;58.364;25.582;2023-10-13T16:38:38;12.73;;;4.25;;
59766;SDS011;46248;58.364;25.582;2023-10-13T16:42:02;7.65;;;3.40;;
59766;SDS011;46248;58.364;25.582;2023-10-13T16:45:27;6.75;;;2.70;;
59766;SDS011;46248;58.364;25.582;2023-10-13T16:48:51;12.52;;;4.07;;
59766;SDS011;46248;58.364;25.582;2023-10-13T16:52:13;16.17;;;9.38;;
59766;SDS011;46248;58.364;25.582;2023-10-13T16:55:35;8.93;;;4.65;;
59766;SDS011;46248;58.364;25.582;2023-10-13T16:59:03;10.25;;;5.80;;
59766;SDS011;46248;58.364;25.582;2023-10-13T17:02:27;9.93;;;6.03;;
59766;SDS011;46248;58.364;25.582;2023-10-13T17:05:49;10.77;;;6.38;;
59766;SDS011;46248;58.364;25.582;2023-10-13T17:09:10;11.80;;;8.45;;
59766;SDS011;46248;58.364;25.582;2023-10-13T17:12:32;16.85;;;9.57;;
59766;SDS011;46248;58.364;25.582;2023-10-13T17:15:56;14.05;;;10.07;;
59766;SDS011;46248;58.364;25.582;2023-10-13T17:19:19;7.65;;;5.30;;
59766;SDS011;46248;58.364;25.582;2023-10-13T17:22:41;27.45;;;14.13;;
59766;SDS011;46248;58.364;25.582;2023-10-13T17:26:02;11.82;;;5.72;;
59766;SDS011;46248;58.364;25.582;2023-10-13T17:29:27;9.43;;;4.40;;
59766;SDS011;46248;58.364;25.582;2023-10-13T17:32:51;6.82;;;3.20;;
59766;SDS011;46248;58.364;25.582;2023-10-13T17:36:14;3.40;;;1.50;;
59766;SDS011;46248;58.364;25.582;2023-10-13T17:39:36;7.63;;;4.72;;
59766;SDS011;46248;58.364;25.582;2023-10-13T17:42:59;6.85;;;3.92;;
59766;SDS011;46248;58.364;25.582;2023-10-13T17:46:22;10.27;;;4.28;;
59766;SDS011;46248;58.364;25.582;2023-10-13T17:49:46;11.77;;;7.15;;
59766;SDS011;46248;58.364;25.582;2023-10-13T17:53:10;31.35;;;15.98;;
59766;SDS011;46248;58.364;25.582;2023-10-13T17:56:32;43.38;;;21.75;;
59766;SDS011;46248;58.364;25.582;2023-10-13T17:59:56;18.15;;;8.73;;
59766;SDS011;46248;58.364;25.582;2023-10-13T18:03:18;27.17;;;14.20;;
59766;SDS011;46248;58.364;25.582;2023-10-13T18:06:42;29.77;;;13.77;;
59766;SDS011;46248;58.364;25.582;2023-10-13T18:10:04;22.77;;;8.93;;
59766;SDS011;46248;58.364;25.582;2023-10-13T18:13:29;20.95;;;8.57;;
59766;SDS011;46248;58.364;25.582;2023-10-13T18:16:51;18.10;;;8.02;;
59766;SDS011;46248;58.364;25.582;2023-10-13T18:20:15;16.58;;;6.15;;
59766;SDS011;46248;58.364;25.582;2023-10-13T18:23:42;15.93;;;8.02;;
59766;SDS011;46248;58.364;25.582;2023-10-13T18:27:03;13.85;;;8.27;;
59766;SDS011;46248;58.364;25.582;2023-10-13T18:30:25;6.78;;;3.30;;
59766;SDS011;46248;58.364;25.582;2023-10-13T18:33:48;9.65;;;3.95;;
59766;SDS011;46248;58.364;25.582;2023-10-13T18:37:10;8.50;;;3.47;;
59766;SDS011;46248;58.364;25.582;2023-10-13T18:40:35;13.80;;;5.07;;
59766;SDS011;46248;58.364;25.582;2023-10-13T18:43:57;4.95;;;2.25;;
59766;SDS011;46248;58.364;25.582;2023-10-13T18:47:20;8.05;;;2.80;;
59766;SDS011;46248;58.364;25.582;2023-10-13T18:50:42;8.88;;;3.17;;
59766;SDS011;46248;58.364;25.582;2023-10-13T18:54:04;6.32;;;2.85;;
59766;SDS011;46248;58.364;25.582;2023-10-13T18:57:29;7.78;;;3.80;;
59766;SDS011;46248;58.364;25.582;2023-10-13T19:00:51;7.93;;;3.00;;
59766;SDS011;46248;58.364;25.582;2023-10-13T19:04:13;7.28;;;2.72;;
59766;SDS011;46248;58.364;25.582;2023-10-13T19:07:35;16.17;;;3.97;;
59766;SDS011;46248;58.364;25.582;2023-10-13T19:10:58;7.63;;;3.00;;
59766;SDS011;46248;58.364;25.582;2023-10-13T19:14:24;17.00;;;6.68;;
59766;SDS011;46248;58.364;25.582;2023-10-13T19:17:45;10.35;;;4.35;;
59766;SDS011;46248;58.364;25.582;2023-10-13T19:21:07;14.43;;;4.63;;
59766;SDS011;46248;58.364;25.582;2023-10-13T19:24:35;28.25;;;12.00;;
59766;SDS011;46248;58.364;25.582;2023-10-13T19:27:56;16.17;;;6.43;;
59766;SDS011;46248;58.364;25.582;2023-10-13T19:31:23;18.02;;;6.00;;
59766;SDS011;46248;58.364;25.582;2023-10-13T19:34:46;13.10;;;4.85;;
59766;SDS011;46248;58.364;25.582;2023-10-13T19:38:07;15.07;;;4.32;;
59766;SDS011;46248;58.364;25.582;2023-10-13T19:41:30;9.35;;;4.32;;
59766;SDS011;46248;58.364;25.582;2023-10-13T19:44:52;12.13;;;4.75;;
59766;SDS011;46248;58.364;25.582;2023-10-13T19:48:16;13.68;;;3.40;;
59766;SDS011;46248;58.364;25.582;2023-10-13T19:51:38;11.75;;;4.10;;
59766;SDS011;46248;58.364;25.582;2023-10-13T19:55:00;8.63;;;2.70;;
59766;SDS011;46248;58.364;25.582;2023-10-13T19:58:23;7.75;;;2.65;;
59766;SDS011;46248;58.364;25.582;2023-10-13T20:01:46;11.02;;;5.18;;
59766;SDS011;46248;58.364;25.582;2023-10-13T20:05:11;10.38;;;2.95;;
59766;SDS011;46248;58.364;25.582;2023-10-13T20:08:38;9.27;;;3.33;;
59766;SDS011;46248;58.364;25.582;2023-10-13T20:12:00;6.20;;;1.95;;
59766;SDS011;46248;58.364;25.582;2023-10-13T20:15:22;16.33;;;5.05;;
59766;SDS011;46248;58.364;25.582;2023-10-13T20:23:33;9.88;;;2.70;;
59766;SDS011;46248;58.364;25.582;2023-10-13T20:26:55;8.85;;;2.40;;
59766;SDS011;46248;58.364;25.582;2023-10-13T20:30:17;15.25;;;3.67;;
59766;SDS011;46248;58.364;25.582;2023-10-13T20:33:42;14.43;;;3.55;;
59766;SDS011;46248;58.364;25.582;2023-10-13T20:37:04;16.83;;;4.15;;
59766;SDS011;46248;58.364;25.582;2023-10-13T20:40:27;5.63;;;2.30;;
59766;SDS011;46248;58.364;25.582;2023-10-13T20:43:49;8.93;;;2.55;;